• Join FlightAware (Why Join?)
  • Login
  • US Flag 
04:42AM EDT


 

Airport Tracker/Info


-or-


 

Live Flight TrackerFlight Track Log ✈ N662US ✈ 16-Jun-2013 ✈ KSEA - RJAA / NRT

Flight Track Log - Related Links

Times and Time Zones

All times are in EDT time to prevent confusion due to time zone crossing. See the N662US flight status page for this flight to view local times or setup timezone preferences in your user account.

Time Position Orientation Groundspeed Altitude Reporting Facility
EDT Latitude Longitude Course Direction KTS MPH feet Rate Location/Type
07:28PM 47.3520 -122.3110 182° South 232 267 2,500  Level FlightAware
07:28PM 47.3220 -122.3200 191° South 260 299 3,000 1,380 Climbing FlightAware
07:28PM 47.3040 -122.3410 218° Southwest 281 323 3,500 1,980 Climbing FlightAware
07:28PM 47.2970 -122.3560 235° Southwest 284 327 3,900 2,760 Climbing FlightAware
07:29PM 47.2920 -122.3890 257° West 284 327 4,800 2,760 Climbing FlightAware
07:29PM 47.3010 -122.4400 285° West 294 338 6,000 1,860 Climbing FlightAware
07:30PM 47.3230 -122.4880 304° West 305 351 6,600 840 Climbing FlightAware
07:30PM 47.3410 -122.5190 311° West 306 352 6,700 1,080 Climbing FlightAware
07:31PM 47.3800 -122.5740 316° Northwest 317 365 7,600 1,980 Climbing FlightAware
07:31PM 47.4140 -122.6160 320° Northwest 324 373 8,900 2,280 Climbing FlightAware
07:32PM 47.4420 -122.6520 319° Northwest 333 383 9,700 1,920 Climbing FlightAware
07:32PM 47.4920 -122.7160 319° Northwest 358 412 11,000 1,920 Climbing FlightAware
07:33PM 47.5420 -122.7840 317° Northwest 377 434 12,300 1,800 Climbing FlightAware
07:34PM 47.6010 -122.8590 319° Northwest 401 461 13,600 1,800 Climbing FlightAware
07:34PM 47.6530 -122.9340 316° Northwest 407 468 14,900 1,920 Climbing FlightAware
07:35PM 47.6620 -122.9700 290° West 400 460 15,400 1,860 Climbing FlightAware
07:35PM 47.6870 -123.0620 292° West 421 484 16,400 1,680 Climbing FlightAware
07:36PM 47.7390 -123.1560 309° West 442 509 17,500 1,560 Climbing FlightAware
07:36PM 47.7910 -123.2600 307° West 453 521 18,600 1,680 Climbing FlightAware
07:37PM 47.8390 -123.3750 302° West 461 531 19,900 1,740 Climbing FlightAware
07:38PM 47.8820 -123.4810 301° West 466 536 21,000 1,680 Climbing FlightAware
07:39PM 47.9280 -123.6030 299° West 472 543 22,200 1,620 Climbing FlightAware
07:39PM 47.9730 -123.7260 299° West 476 548 23,400 1,560 Climbing FlightAware
07:40PM 48.0190 -123.8510 299° West 481 554 24,500 1,380 Climbing FlightAware
07:41PM 48.0750 -123.9570 308° West 496 571 25,400 1,020 Climbing FlightAware
07:41PM 48.1240 -124.0340 314° West 503 579 25,900 1,020 Climbing FlightAware
07:42PM 48.2100 -124.1740 313° West 512 589 26,900 1,080 Climbing FlightAware
07:43PM 48.2790 -124.2940 311° West 521 600 27,600 960 Climbing FlightAware
07:43PM 48.3440 -124.4070 311° West 528 608 28,300 1,140 Climbing FlightAware
07:44PM 48.4080 -124.5190 311° West 529 609 29,200 1,200 Climbing FlightAware
07:45PM 48.4770 -124.6340 312° West 531 611 30,000 1,080 Climbing FlightAware
07:46PM 48.5500 -124.7550 312° West 533 613 30,800 960 Climbing FlightAware
07:46PM 48.6150 -124.8660 312° West 536 617 31,400 840 Climbing FlightAware
07:47PM 48.6850 -124.9830 312° West 533 613 32,000 360 Climbing FlightAware
07:48PM 48.7580 -125.1080 312° West 531 611 32,000  Level FlightAware
07:48PM 48.8220 -125.2160 312° West 529 609 32,000  Level FlightAware
07:49PM 48.8790 -125.3130 312° West 527 606 32,000  Level FlightAware
07:50PM 48.9420 -125.4200 312° West 523 602 32,000  Level FlightAware
07:50PM 49.0150 -125.5470 311° West 522 601 32,000  Level FlightAware
07:51PM 49.0810 -125.6600 312° West 523 602 32,000  Level FlightAware
07:52PM 49.1800 -125.8320 311° West 524 603 32,000  Level FlightAware
07:53PM 49.2470 -125.9490 311° West 524 603 32,000  Level FlightAware
07:53PM 49.3150 -126.0690 311° West 523 602 32,000  Level FlightAware
07:54PM 49.3750 -126.1750 311° West 526 605 32,000  Level FlightAware
07:55PM 49.4500 -126.3080 311° West 527 606 32,000  Level FlightAware
07:56PM 49.5160 -126.4240 311° West 527 606 32,000  Level FlightAware
07:56PM 49.5820 -126.5440 310° West 526 605 32,000  Level FlightAware
07:57PM 49.6480 -126.6610 311° West 527 606 32,000  Level FlightAware
07:58PM 49.7190 -126.7890 311° West 527 606 32,000  Level FlightAware
07:58PM 49.7730 -126.8860 311° West 527 606 32,000  Level FlightAware
07:59PM 49.8680 -127.0620 310° West 529 609 32,000  Level FlightAware
08:00PM 49.9370 -127.1860 311° West 528 608 32,000  Level FlightAware
08:01PM 50.0050 -127.3130 310° West 528 608 32,000  Level FlightAware
08:01PM 50.0730 -127.4380 310° West 529 609 32,000  Level FlightAware
08:02PM 50.1190 -127.5230 310° West 529 609 32,000  Level FlightAware
08:03PM 50.1930 -127.6600 310° West 531 611 32,000  Level FlightAware
08:03PM 50.2600 -127.7870 310° West 533 613 32,000  Level FlightAware
08:04PM 50.3560 -127.9680 310° West 538 619 32,000  Level FlightAware
08:05PM 50.4040 -128.0580 310° West 541 623 32,000  Level FlightAware
08:06PM 50.4720 -128.1880 309° West 542 624 32,000  Level FlightAware
08:07PM 50.5570 -128.3480 310° West 542 624 32,000  Level FlightAware
08:07PM 50.6250 -128.4770 310° West 542 624 32,000  Level FlightAware
08:08PM 50.6740 -128.5690 310° West 542 624 32,000  Level FlightAware
08:09PM 50.7370 -128.6880 310° West 542 624 32,000  Level FlightAware
08:09PM 50.7870 -128.7810 310° West 542 624 32,000  Level FlightAware
08:10PM 50.8520 -128.9050 310° West 542 624 32,000  Level FlightAware
08:11PM 50.9200 -129.0320 310° West 542 624 32,000  Level FlightAware
08:12PM 50.9870 -129.1590 310° West 542 624 32,000  Level FlightAware
08:12PM 51.0350 -129.2500 310° West 542 624 32,000  Level FlightAware
08:13PM 51.1020 -129.3770 310° West 542 624 32,000  Level FlightAware
08:14PM 51.1510 -129.4710 310° West 542 624 32,000  Level FlightAware
08:15PM 51.2170 -129.5960 310° West 542 624 32,000  Level FlightAware
08:15PM 51.2660 -129.6900 310° West 542 624 32,000  Level FlightAware
08:16PM 51.3180 -129.7890 310° West 542 624 32,000  Level FlightAware
08:17PM 51.4667 -130.2167 310° West 540 621 32,000  Level Vancouver Center
08:18PM 51.5667 -130.4167 309° West 540 621 32,000  Level Vancouver Center
08:19PM 51.6500 -130.5833 309° West 530 610 32,000  Level Vancouver Center
08:20PM 51.7333 -130.7833 304° West 530 610 32,000  Level Vancouver Center
08:21PM 51.8333 -130.9667 311° West 530 610 32,000  Level Vancouver Center
08:22PM 51.9167 -131.1667 304° West 530 610 32,000  Level Vancouver Center
08:23PM 52.0167 -131.3167 317° Northwest 540 621 32,000  Level Anchorage Center
08:24PM 52.1000 -131.5167 304° West 540 621 32,000  Level Anchorage Center
08:25PM 52.2000 -131.7167 309° West 530 610 32,000 480 Level Anchorage Center
08:26PM 52.2833 -131.9000 307° West 540 621 33,000 960 Climbing Anchorage Center
08:27PM 52.3667 -132.1000 304° West 530 610 34,000 480 Climbing Anchorage Center
08:28PM 52.4500 -132.2833 307° West 530 610 34,000  Level Anchorage Center
08:29PM 52.5500 -132.5000 307° West 530 610 34,000  Level Anchorage Center
08:30PM 52.6333 -132.6833 307° West 530 610 34,000  Level Anchorage Center
08:31PM 52.7167 -132.8833 305° West 530 610 34,000  Level Anchorage Center
08:32PM 52.8000 -133.0833 305° West 530 610 34,000  Level Anchorage Center
08:33PM 52.8833 -133.2833 305° West 530 610 34,000  Level Anchorage Center
08:34PM 52.9667 -133.4667 307° West 520 598 34,000  Level Anchorage Center
08:35PM 53.0500 -133.6833 303° West 520 598 34,000  Level Anchorage Center
08:36PM 53.1333 -133.8667 307° West 520 598 34,000  Level Anchorage Center
08:37PM 53.2167 -134.1000 301° West 520 598 34,000  Level Vancouver Center
08:38PM 53.2833 -134.2833 301° West 520 598 34,000  Level Vancouver Center
08:39PM 53.3833 -134.5167 306° West 520 598 34,000  Level Vancouver Center
08:40PM 53.4500 -134.7000 301° West 510 587 34,000  Level Vancouver Center
08:41PM 53.5333 -134.8833 307° West 510 587 34,000  Level Vancouver Center
08:42PM 53.6333 -135.0667 313° West 510 587 34,000  Level Anchorage Center
08:43PM 53.7000 -135.2500 302° West 510 587 34,000  Level Anchorage Center
08:44PM 53.7833 -135.4667 303° West 510 587 34,000  Level Anchorage Center
08:45PM 53.8667 -135.6500 308° West 510 587 34,000  Level Anchorage Center
08:46PM 53.9333 -135.8667 298° West 510 587 34,000  Level Anchorage Center
08:47PM 54.0167 -136.0500 308° West 510 587 34,000  Level Anchorage Center
08:48PM 54.0667 -136.3167 288° West 510 587 34,000  Level Vancouver Center
08:49PM 54.1500 -136.4833 311° West 510 587 34,000  Level Anchorage Center
08:50PM 54.2000 -136.6667 295° West 510 587 34,000  Level Anchorage Center
08:51PM 54.2667 -136.8833 298° West 510 587 34,000  Level Anchorage Center
08:52PM 54.3500 -137.1667 297° West 510 587 34,000  Level Vancouver Center
08:53PM 54.4000 -137.3167 300° West 510 587 34,000  Level Anchorage Center
08:54PM 54.4667 -137.5333 298° West 510 587 34,000  Level Anchorage Center
08:55PM 54.5333 -137.7500 298° West 520 598 34,000  Level Anchorage Center
08:56PM 54.6000 -137.9500 300° West 500 575 34,000  Level Anchorage Center
08:57PM 54.6667 -138.1833 296° West 520 598 34,000  Level Anchorage Center
08:58PM 54.7167 -138.4500 288° West 530 610 34,000  Level Vancouver Center
08:59PM 54.8000 -138.6500 306° West 540 621 34,000  Level Anchorage Center
09:00PM 54.8500 -138.9167 288° West 530 610 34,000  Level Vancouver Center
09:01PM 54.9167 -139.1500 297° West 540 621 34,000  Level Vancouver Center
09:02PM 55.0167 -139.3833 307° West 540 621 34,000  Level Anchorage Center
09:03PM 55.0833 -139.6333 295° West 560 644 34,000  Level Anchorage Center
09:04PM 55.1167 -139.8500 285° West 560 644 34,000  Level Vancouver Center
09:04PM 55.1500 -139.8667 344° North 540 621 34,000  Level Anchorage Center
09:05PM 55.2167 -140.1167 295° West 540 621 34,000  Level Anchorage Center
09:06PM 55.2833 -140.3667 295° West 560 644 34,000  Level Anchorage Center
09:07PM 55.3500 -140.6000 297° West 540 621 34,000  Level Anchorage Center
09:08PM 55.4167 -140.8500 295° West 540 621 34,000  Level Anchorage Center
09:09PM 55.4833 -141.1000 295° West 540 621 34,000  Level Anchorage Center
09:10PM 55.5500 -141.3333 297° West 550 633 34,000  Level Anchorage Center
09:11PM 55.6000 -141.5833 290° West 550 633 34,000  Level Anchorage Center
09:12PM 55.6667 -141.8333 295° West 550 633 34,000  Level Anchorage Center
09:13PM 55.7333 -142.0833 295° West 550 633 34,000  Level Anchorage Center
09:14PM 55.7833 -142.2833 294° West 540 621 34,000  Level Anchorage Center
09:15PM 55.8500 -142.5333 295° West 530 610 34,000  Level Anchorage Center
09:16PM 55.9000 -142.7833 290° West 540 621 34,000  Level Anchorage Center
09:17PM 55.9667 -143.0333 296° West 550 633 34,000  Level Anchorage Center
09:18PM 56.0333 -143.3500 291° West 560 644 34,000  Level Anchorage Center
09:19PM 56.0833 -143.6000 290° West 560 644 34,000  Level Anchorage Center
09:20PM 56.1333 -143.7833 296° West 530 610 34,000  Level Anchorage Center
09:21PM 56.2000 -144.0833 292° West 540 621 34,000  Level Anchorage Center
09:22PM 56.2667 -144.3500 294° West 540 621 34,000  Level Anchorage Center
09:23PM 56.3167 -144.6000 290° West 540 621 34,000  Level Anchorage Center
09:24PM 56.3667 -144.8500 290° West 550 633 34,000  Level Anchorage Center
09:25PM 56.4333 -145.1000 296° West 540 621 34,000  Level Anchorage Center
09:26PM 56.4833 -145.3667 289° West 540 621 34,000  Level Anchorage Center
09:27PM 56.5333 -145.6333 289° West 550 633 34,000  Level Anchorage Center
09:28PM 56.6000 -145.8833 296° West 550 633 34,000  Level Anchorage Center
09:29PM 56.6500 -146.1500 289° West 550 633 34,000  Level Anchorage Center
09:30PM 56.7000 -146.4000 290° West 540 621 34,000  Level Anchorage Center
09:31PM 56.7500 -146.6667 289° West 540 621 34,000  Level Anchorage Center
09:32PM 56.8000 -146.9167 290° West 540 621 34,000  Level Anchorage Center
09:33PM 56.8667 -147.2000 293° West 560 644 34,000  Level Anchorage Center
09:34PM 56.9167 -147.4500 290° West 550 633 34,000  Level Anchorage Center
09:35PM 56.9667 -147.7167 289° West 540 621 34,000  Level Anchorage Center
09:36PM 57.0167 -147.9833 289° West 550 633 34,000  Level Anchorage Center
09:37PM 57.0667 -148.2500 289° West 550 633 34,000  Level Anchorage Center
09:38PM 57.1167 -148.5167 289° West 540 621 34,000  Level Anchorage Center
09:39PM 57.1667 -148.7833 289° West 550 633 34,000  Level Anchorage Center
09:40PM 57.2000 -149.0500 283° West 540 621 34,000  Level Anchorage Center
09:41PM 57.2500 -149.3333 288° West 540 621 34,000  Level Anchorage Center
09:42PM 57.3000 -149.6000 289° West 540 621 34,000  Level Anchorage Center
09:43PM 57.3500 -149.8667 289° West 550 633 34,000  Level Anchorage Center
09:44PM 57.4000 -150.1333 289° West 540 621 34,000  Level Anchorage Center
09:45PM 57.4333 -150.4167 282° West 550 633 34,000  Level Anchorage Center
09:46PM 57.4667 -150.7000 282° West 540 621 34,000  Level Anchorage Center
09:47PM 57.5000 -150.9667 283° West 540 621 34,000  Level Anchorage Center
09:48PM 57.5167 -151.2500 276° West 540 621 34,000  Level Anchorage Center
09:49PM 57.5500 -151.5333 282° West 550 633 34,000  Level Anchorage Center
09:50PM 57.5667 -151.8167 276° West 550 633 34,000  Level Anchorage Center
09:51PM 57.6000 -152.1000 282° West 550 633 34,000  Level Anchorage Center
09:52PM 57.6167 -152.3833 276° West 550 633 34,000  Level Anchorage Center
09:53PM 57.6500 -152.6667 283° West 540 621 34,000  Level Anchorage Center
09:54PM 57.6667 -152.9500 276° West 550 633 34,000  Level Anchorage Center
09:55PM 57.6833 -153.2500 276° West 550 633 34,000  Level Anchorage Center
09:56PM 57.7000 -153.5333 276° West 560 644 34,000  Level Anchorage Center
09:57PM 57.7333 -153.8167 283° West 550 633 34,000  Level Anchorage Center
09:58PM 57.7500 -154.1000 276° West 550 633 34,000  Level Anchorage Center
09:59PM 57.7667 -154.3833 276° West 560 644 34,000  Level Anchorage Center
10:00PM 57.7833 -154.6667 276° West 560 644 34,000  Level Anchorage Center
10:01PM 57.8000 -154.9667 276° West 550 633 34,000  Level Anchorage Center
10:02PM 57.8167 -155.2667 276° West 550 633 34,000  Level Anchorage Center
10:03PM 57.8333 -155.5500 276° West 560 644 34,000  Level Anchorage Center
10:04PM 57.8500 -155.8500 276° West 550 633 34,000  Level Anchorage Center
10:05PM 57.8667 -156.1500 276° West 550 633 34,000  Level Anchorage Center
10:06PM 57.8667 -156.4333 270° West 550 633 34,000  Level Anchorage Center
10:07PM 57.8833 -156.7167 276° West 540 621 34,000  Level Anchorage Center
10:08PM 57.9000 -157.0167 276° West 550 633 34,000  Level Anchorage Center
10:09PM 57.9167 -157.3000 276° West 540 621 34,000  Level Anchorage Center
10:10PM 57.9333 -157.5833 276° West 540 621 34,000  Level Anchorage Center
10:11PM 57.9333 -157.8667 270° West 550 633 34,000  Level Anchorage Center
10:12PM 57.9500 -158.1667 276° West 540 621 34,000  Level Anchorage Center
10:13PM 57.9500 -158.4500 270° West 540 621 34,000  Level Anchorage Center
10:14PM 57.9667 -158.7333 276° West 550 633 34,000  Level Anchorage Center
10:15PM 57.9667 -159.0333 270° West 550 633 34,000  Level Anchorage Center
10:16PM 57.9833 -159.3167 276° West 540 621 34,000  Level Anchorage Center
10:17PM 57.9833 -159.6000 270° West 550 633 34,000  Level Anchorage Center
10:18PM 58.0000 -159.9000 276° West 550 633 34,000  Level Anchorage Center
10:19PM 58.0000 -160.1833 270° West 550 633 34,000  Level Anchorage Center
10:20PM 58.0000 -160.4667 270° West 540 621 34,000  Level Anchorage Center
10:21PM 58.0167 -160.7500 276° West 540 621 34,000  Level Anchorage Center
10:22PM 58.0167 -161.0500 270° West 540 621 34,000  Level Anchorage Center
10:23PM 58.0333 -161.3333 276° West 540 621 34,000  Level Anchorage Center
10:24PM 58.0333 -161.6167 270° West 540 621 34,000  Level Anchorage Center
10:25PM 58.0333 -161.9000 270° West 540 621 34,000  Level Anchorage Center
10:26PM 58.0500 -162.1833 276° West 520 598 34,000  Level Anchorage Center
10:27PM 58.0500 -162.4667 270° West 530 610 34,000  Level Anchorage Center
10:28PM 58.0500 -162.7500 270° West 530 610 34,000  Level Anchorage Center
10:29PM 58.0500 -163.0333 270° West 520 598 34,000  Level Anchorage Center
10:30PM 58.0500 -163.3000 270° West 510 587 34,000  Level Anchorage Center
10:31PM 58.0500 -163.5667 270° West 500 575 34,000  Level Anchorage Center
10:32PM 58.0500 -163.8500 270° West 510 587 34,000  Level Anchorage Center
10:33PM 58.0500 -164.1000 270° West 500 575 34,000  Level Anchorage Center
10:34PM 58.0500 -164.3833 270° West 510 587 34,000  Level Anchorage Center
10:35PM 58.0500 -164.6500 270° West 500 575 34,000  Level Anchorage Center
10:36PM 58.0500 -164.9167 270° West 500 575 34,000  Level Anchorage Center
10:37PM 58.0500 -165.1833 270° West 510 587 34,000  Level Anchorage Center
10:38PM 58.0500 -165.4500 270° West 510 587 34,000  Level Anchorage Center
10:39PM 58.0500 -165.7167 270° West 510 587 34,000  Level Anchorage Center
10:40PM 58.0333 -166.0000 264° West 510 587 34,000  Level Anchorage Center
10:41PM 58.0333 -166.2667 270° West 510 587 34,000  Level Anchorage Center
10:42PM 58.0333 -166.5333 270° West 510 587 34,000  Level Anchorage Center
10:43PM 58.0167 -166.7667 262° West 500 575 34,000  Level Anchorage Center
10:44PM 58.0167 -167.0333 270° West 500 575 34,000  Level Anchorage Center
10:45PM 58.0000 -167.3000 263° West 510 587 34,000  Level Anchorage Center
10:46PM 58.0000 -167.5667 270° West 520 598 34,000  Level Anchorage Center
10:47PM 57.9833 -167.8500 264° West 520 598 34,000  Level Anchorage Center
10:48PM 57.9833 -168.1167 270° West 530 610 34,000  Level Anchorage Center
10:49PM 57.9667 -168.4000 264° West 520 598 34,000  Level Anchorage Center
10:50PM 57.9667 -168.6667 270° West 520 598 34,000  Level Anchorage Center
10:51PM 57.9500 -168.9500 264° West 520 598 34,000  Level Anchorage Center
10:52PM 57.9333 -169.2167 263° West 520 598 34,000  Level Anchorage Center
10:53PM 57.9167 -169.5000 264° West 530 610 34,000  Level Anchorage Center
10:54PM 57.9167 -169.7667 270° West 520 598 34,000 300 Level Anchorage Center
10:55PM 57.9000 -170.0500 264° West 530 610 34,700 780 Climbing Anchorage Center
10:56PM 57.8833 -170.3333 264° West 530 610 35,600 600 Climbing Anchorage Center
10:57PM 57.8667 -170.6500 264° West 520 598 36,000 180 Climbing Anchorage Center
10:58PM 57.8500 -170.9167 263° West 510 587 36,000  Level Anchorage Center
10:59PM 57.8333 -171.2000 264° West 520 598 36,000  Level Anchorage Center
11:00PM 57.8167 -171.4667 263° West 510 587 36,000  Level Anchorage Center
11:01PM 57.8000 -171.7333 263° West 520 598 36,000  Level Anchorage Center
11:02PM 57.7833 -172.0000 263° West 500 575 36,000  Level Anchorage Center
11:03PM 57.7667 -172.2667 263° West 520 598 36,000  Level Anchorage Center
11:04PM 57.7500 -172.5333 263° West 510 587 36,000  Level Anchorage Center
11:05PM 57.7333 -172.8000 263° West 520 598 36,000  Level Anchorage Center
11:06PM 57.7167 -173.0667 263° West 510 587 36,000  Level Anchorage Center
11:07PM 57.6833 -173.3333 257° West 520 598 36,000  Level Anchorage Center
11:08PM 57.6667 -173.6000 263° West 520 598 36,000  Level Anchorage Center
11:09PM 57.6500 -173.8833 264° West 530 610 36,000  Level Anchorage Center
11:10PM 57.6333 -174.1000 262° West 540 621 36,000  Level Anchorage Center
11:11PM 57.6000 -174.3667 257° West 530 610 36,000  Level Anchorage Center
11:12PM 57.5833 -174.6500 264° West 520 598 36,000  Level Anchorage Center
11:13PM 57.5500 -174.9167 257° West 520 598 36,000  Level Anchorage Center
11:14PM 57.5333 -175.1833 263° West 520 598 36,000  Level Anchorage Center
11:15PM 57.5167 -175.4500 263° West 530 610 36,000  Level Anchorage Center
11:16PM 57.4833 -175.7167 257° West 530 610 36,000  Level Anchorage Center
11:19PM 57.4542 -176.0167 260° West  Level FlightAware Approximate
11:26PM 57.2719 -177.7577 259° West  Level FlightAware Approximate
11:27PM 57.2441 -178.0051 258° West  Level FlightAware Approximate
11:28PM 57.2157 -178.2520 258° West  Level FlightAware Approximate
11:29PM 57.1869 -178.4986 258° West  Level FlightAware Approximate
11:30PM 57.1576 -178.7448 258° West  Level FlightAware Approximate
11:31PM 57.1279 -178.9905 258° West  Level FlightAware Approximate
11:32PM 57.0976 -179.2359 257° West  Level FlightAware Approximate
11:33PM 57.0669 -179.4809 257° West  Level FlightAware Approximate
11:33PM 57.0000 180.0000 249° West 513 590 36,000  Level Anchorage Center
11:34PM 57.0359 -179.7238 257° West  Level FlightAware Approximate
11:34PM 56.9167 179.5833 248° West 510 587 36,000  Level Anchorage Center
11:35PM 57.0045 -179.9658 257° West  Level FlightAware Approximate
11:36PM 56.9573 179.8017 249° West  Level FlightAware Approximate
11:37PM 56.9071 179.5712 248° West  Level FlightAware Approximate
11:38PM 56.8565 179.3413 248° West  Level FlightAware Approximate
11:39PM 56.6738 178.5235 247° West 513 590 36,000  Level FlightAware Transoceanic
11:40PM 56.6013 178.1860 247° West 510 587 36,000  Level FlightAware Transoceanic
11:41PM 56.5472 177.9554 247° West 510 587 36,000  Level FlightAware Transoceanic
11:42PM 56.4927 177.7254 247° West 510 587 36,000  Level FlightAware Transoceanic
11:43PM 56.4378 177.4961 246° West 510 587 36,000  Level FlightAware Transoceanic
11:44PM 56.3825 177.2675 246° West 510 587 36,000  Level FlightAware Transoceanic
11:45PM 56.3267 177.0396 246° West 510 587 36,000  Level FlightAware Transoceanic
11:46PM 56.2705 176.8123 246° West 510 587 36,000  Level FlightAware Transoceanic
11:46PM 56.2167 176.6667 245° Southwest 540 621 36,000  Level Anchorage Center
11:47PM 56.2139 176.5857 246° West 510 587 36,000  Level FlightAware Transoceanic
11:48PM 56.1569 176.3597 246° West 510 587 36,000  Level FlightAware Transoceanic
11:48PM 56.1000 176.2167 245° Southwest 510 587 36,000  Level Anchorage Center
11:49PM 56.0995 176.1345 245° Southwest 510 587 36,000  Level FlightAware Transoceanic
11:49PM 56.0333 175.9667 245° Southwest 520 598 36,000  Level Anchorage Center
11:50PM 56.0417 175.9099 245° Southwest 510 587 36,000  Level FlightAware Transoceanic
11:50PM 55.9833 175.7500 248° West 530 610 36,000  Level Anchorage Center
11:51PM 55.9835 175.6859 245° Southwest 510 587 36,000  Level FlightAware Transoceanic
11:51PM 55.9333 175.5500 246° West 510 587 36,000  Level Anchorage Center
11:52PM 55.8667 175.3000 245° Southwest 500 575 36,000  Level Anchorage Center
11:53PM 55.8000 175.0500 245° Southwest 510 587 36,000  Level Anchorage Center
11:54PM 55.7500 174.8500 246° West 510 587 36,000  Level Anchorage Center
11:55PM 55.6833 174.6167 243° Southwest 510 587 36,000  Level Anchorage Center
11:56PM 55.6167 174.3667 245° Southwest 510 587 36,000  Level Anchorage Center
11:57PM 55.5667 174.1667 246° West 510 587 36,000  Level Anchorage Center
11:58PM 55.5000 173.9333 243° Southwest 500 575 36,000  Level Anchorage Center
11:59PM 55.4333 173.7333 240° Southwest 510 587 36,000  Level Anchorage Center
12:00AM 55.3667 173.4833 245° Southwest 510 587 36,000  Level Anchorage Center
12:01AM 55.3167 173.3000 244° Southwest 510 587 36,000  Level Anchorage Center
12:02AM 55.2500 173.0500 245° Southwest 510 587 36,000  Level Anchorage Center
12:03AM 55.1667 172.8167 238° Southwest 510 587 36,000  Level Anchorage Center
12:04AM 55.1167 172.6167 246° West 510 587 36,000  Level Anchorage Center
12:05AM 55.0500 172.3833 244° Southwest 500 575 36,000  Level Anchorage Center
12:06AM 54.9833 172.2000 238° Southwest 510 587 36,000  Level Anchorage Center
12:07AM 54.9167 171.9667 244° Southwest 500 575 36,000  Level Anchorage Center
12:08AM 54.8500 171.7833 238° Southwest 500 575 36,000  Level Anchorage Center
12:09AM 54.7500 171.5667 231° Southwest 510 587 36,000  Level Anchorage Center
12:10AM 54.6833 171.4000 235° Southwest 510 587 36,000  Level Anchorage Center
12:13AM 54.5789 171.1504 234° Southwest  Level FlightAware Approximate
12:13AM 54.4167 170.7500 234° Southwest 520 598 36,000  Level Anchorage Center
12:14AM 54.3333 170.5833 229° Southwest 510 587 36,000  Level Anchorage Center
12:15AM 54.2500 170.3833 235° Southwest 500 575 36,000  Level Anchorage Center
12:16AM 54.1667 170.1667 237° Southwest 490 564 36,000  Level Anchorage Center
12:18AM 53.9833 169.7833 231° Southwest 520 598 36,000  Level Anchorage Center
12:19AM 53.9167 169.6333 233° Southwest 500 575 36,000  Level Anchorage Center
12:20AM 53.8333 169.4167 237° Southwest 520 598 36,000  Level Anchorage Center
12:21AM 53.7667 169.2667 233° Southwest 500 575 36,000  Level Anchorage Center
12:22AM 53.6667 169.0333 234° Southwest 510 587 36,000  Level Anchorage Center
12:23AM 53.6000 168.8167 243° Southwest 500 575 36,000  Level Anchorage Center
12:24AM 53.5333 168.6333 239° Southwest 530 610 36,000  Level Anchorage Center
12:27AM 53.4167 168.2333 239° Southwest 485 558 36,000  Level Anchorage Center
12:27AM 53.3333 168.0500 240° Southwest 486 559 36,000  Level Anchorage Center
12:33AM 52.9918 167.0528 239° Southwest 485 558 36,000  Level FlightAware Transoceanic
12:34AM 52.9101 166.8696 239° Southwest 486 559 36,000  Level FlightAware Transoceanic
12:35AM 52.8384 166.6751 239° Southwest 486 559 36,000  Level FlightAware Transoceanic
12:36AM 52.7665 166.4813 238° Southwest 486 559 36,000  Level FlightAware Transoceanic
12:37AM 52.6942 166.2881 238° Southwest 486 559 36,000  Level FlightAware Transoceanic
12:38AM 52.6216 166.0955 238° Southwest 486 559 36,000  Level FlightAware Transoceanic
12:39AM 52.5486 165.9036 238° Southwest 486 559 36,000  Level FlightAware Transoceanic
12:40AM 52.4754 165.7123 238° Southwest 486 559 36,000  Level FlightAware Transoceanic
12:41AM 52.4019 165.5217 238° Southwest 486 559 36,000  Level FlightAware Transoceanic
12:42AM 52.3280 165.3317 237° Southwest 486 559 36,000  Level FlightAware Transoceanic
12:43AM 52.2539 165.1423 237° Southwest 486 559 36,000  Level FlightAware Transoceanic
12:44AM 52.1794 164.9536 237° Southwest 486 559 36,000  Level FlightAware Transoceanic
12:45AM 52.1047 164.7654 237° Southwest 486 559 36,000  Level FlightAware Transoceanic
12:46AM 52.0296 164.5780 237° Southwest 486 559 36,000  Level FlightAware Transoceanic
12:47AM 51.9543 164.3911 237° Southwest 486 559 36,000  Level FlightAware Transoceanic
12:48AM 51.8787 164.2049 237° Southwest 486 559 36,000  Level FlightAware Transoceanic
12:49AM 51.8027 164.0193 236° Southwest 486 559 36,000  Level FlightAware Transoceanic
12:50AM 51.7265 163.8343 236° Southwest 486 559 36,000  Level FlightAware Transoceanic
12:51AM 51.6500 163.6500 236° Southwest 486 559 36,000  Level FlightAware Transoceanic
12:51AM 51.6500 163.6500 236° Southwest 457 526 36,000  Level Anchorage Center
12:52AM 51.5786 163.4780 236° Southwest 486 559 36,000  Level FlightAware Transoceanic
12:53AM 51.5070 163.3065 236° Southwest 486 559 36,000  Level FlightAware Transoceanic
12:54AM 51.4352 163.1356 236° Southwest 486 559 36,000  Level FlightAware Transoceanic
12:54AM 51.4667 163.1833 236° Southwest 459 528 36,000  Level Anchorage Center
12:55AM 51.3630 162.9652 236° Southwest 486 559 36,000  Level FlightAware Transoceanic
12:56AM 51.2907 162.7953 236° Southwest 486 559 36,000  Level FlightAware Transoceanic
12:57AM 51.2181 162.6260 236° Southwest 486 559 36,000  Level FlightAware Transoceanic
12:58AM 51.2181 162.6260 236° Southwest 457 526 36,000  Level FlightAware Transoceanic
12:59AM 51.1452 162.4572 235° Southwest 457 526 36,000  Level FlightAware Transoceanic
01:00AM 51.0411 162.1981 235° Southwest 459 528 36,000  Level FlightAware Transoceanic
01:01AM 50.9694 162.0357 235° Southwest 459 528 36,000  Level FlightAware Transoceanic
01:02AM 50.8974 161.8738 235° Southwest 459 528 36,000  Level FlightAware Transoceanic
01:03AM 50.8252 161.7123 235° Southwest 459 528 36,000  Level FlightAware Transoceanic
01:04AM 50.7528 161.5514 235° Southwest 459 528 36,000  Level FlightAware Transoceanic
01:05AM 50.6802 161.3910 234° Southwest 459 528 36,000  Level FlightAware Transoceanic
01:06AM 50.6074 161.2310 234° Southwest 459 528 36,000  Level FlightAware Transoceanic
01:07AM 50.5343 161.0716 234° Southwest 459 528 36,000  Level FlightAware Transoceanic
01:08AM 50.4611 160.9126 234° Southwest 459 528 36,000  Level FlightAware Transoceanic
01:09AM 50.3876 160.7542 234° Southwest 459 528 36,000  Level FlightAware Transoceanic
01:10AM 50.3139 160.5962 234° Southwest 459 528 36,000  Level FlightAware Transoceanic
01:11AM 50.2399 160.4387 234° Southwest 459 528 36,000  Level FlightAware Transoceanic
01:12AM 50.1658 160.2818 234° Southwest 459 528 36,000  Level FlightAware Transoceanic
01:13AM 50.0915 160.1252 233° Southwest 459 528 36,000  Level FlightAware Transoceanic
01:14AM 50.0169 159.9692 233° Southwest 459 528 36,000  Level FlightAware Transoceanic
01:15AM 49.9422 159.8137 233° Southwest 459 528 36,000  Level FlightAware Transoceanic
01:16AM 49.8672 159.6586 233° Southwest 459 528 36,000  Level FlightAware Transoceanic
01:17AM 49.7920 159.5041 233° Southwest 459 528 36,000  Level FlightAware Transoceanic
01:18AM 49.7167 159.3500 233° Southwest 459 528 36,000  Level FlightAware Transoceanic
01:19AM 49.6412 159.1959 233° Southwest 459 528 36,000  Level FlightAware Transoceanic
01:20AM 49.5655 159.0422 233° Southwest 459 528 36,000  Level FlightAware Transoceanic
01:21AM 49.4896 158.8891 233° Southwest 459 528 36,000  Level FlightAware Transoceanic
01:22AM 49.4135 158.7364 232° Southwest 459 528 36,000  Level FlightAware Transoceanic
01:23AM 49.3372 158.5841 232° Southwest 459 528 36,000  Level FlightAware Transoceanic
01:24AM 49.2607 158.4324 232° Southwest 459 528 36,000  Level FlightAware Transoceanic
01:25AM 49.1839 158.2811 232° Southwest 459 528 36,000  Level FlightAware Transoceanic
01:26AM 49.1070 158.1303 232° Southwest 459 528 36,000  Level FlightAware Transoceanic
01:27AM 49.0299 157.9799 232° Southwest 459 528 36,000  Level FlightAware Transoceanic
01:28AM 48.9527 157.8301 232° Southwest 459 528 36,000  Level FlightAware Transoceanic
01:29AM 48.8752 157.6806 232° Southwest 459 528 36,000  Level FlightAware Transoceanic
01:30AM 48.7975 157.5317 232° Southwest 459 528 36,000  Level FlightAware Transoceanic
01:31AM 48.7196 157.3832 231° Southwest 459 528 36,000  Level FlightAware Transoceanic
01:32AM 48.6416 157.2352 231° Southwest 459 528 36,000  Level FlightAware Transoceanic
01:33AM 48.5633 157.0876 231° Southwest 459 528 36,000  Level FlightAware Transoceanic
01:34AM 48.4849 156.9405 231° Southwest 459 528 36,000  Level FlightAware Transoceanic
01:35AM 48.4063 156.7938 231° Southwest 459 528 36,000  Level FlightAware Transoceanic
01:36AM 48.3274 156.6476 231° Southwest 459 528 36,000  Level FlightAware Transoceanic
01:37AM 48.2485 156.5019 231° Southwest 459 528 36,000  Level FlightAware Transoceanic
01:38AM 48.1693 156.3566 231° Southwest 459 528 36,000  Level FlightAware Transoceanic
01:39AM 48.0899 156.2117 231° Southwest 459 528 36,000  Level FlightAware Transoceanic
01:40AM 48.0104 156.0673 230° Southwest 459 528 36,000  Level FlightAware Transoceanic
01:41AM 47.9307 155.9233 230° Southwest 459 528 36,000  Level FlightAware Transoceanic
01:42AM 47.8508 155.7798 230° Southwest 459 528 36,000  Level FlightAware Transoceanic
01:43AM 47.7707 155.6367 230° Southwest 459 528 36,000  Level FlightAware Transoceanic
01:44AM 47.6904 155.4941 230° Southwest 459 528 36,000  Level FlightAware Transoceanic
01:45AM 47.6100 155.3519 230° Southwest 459 528 36,000  Level FlightAware Transoceanic
01:46AM 47.5294 155.2101 230° Southwest 459 528 36,000  Level FlightAware Transoceanic
01:47AM 47.4486 155.0688 230° Southwest 459 528 36,000  Level FlightAware Transoceanic
01:48AM 47.3676 154.9279 230° Southwest 459 528 36,000  Level FlightAware Transoceanic
01:49AM 47.2865 154.7874 230° Southwest 459 528 36,000  Level FlightAware Transoceanic
01:50AM 47.2052 154.6474 229° Southwest 459 528 36,000  Level FlightAware Transoceanic
01:51AM 47.1238 154.5078 229° Southwest 459 528 36,000  Level FlightAware Transoceanic
01:52AM 47.0421 154.3686 229° Southwest 459 528 36,000  Level FlightAware Transoceanic
01:53AM 46.9603 154.2299 229° Southwest 459 528 36,000  Level FlightAware Transoceanic
01:54AM 46.8783 154.0915 229° Southwest 459 528 36,000  Level FlightAware Transoceanic
01:55AM 46.7962 153.9536 229° Southwest 459 528 36,000  Level FlightAware Transoceanic
01:56AM 46.7139 153.8161 229° Southwest 459 528 36,000  Level FlightAware Transoceanic
01:57AM 46.6314 153.6791 229° Southwest 459 528 36,000  Level FlightAware Transoceanic
01:58AM 46.5488 153.5424 229° Southwest 459 528 36,000  Level FlightAware Transoceanic
01:59AM 46.4660 153.4062 229° Southwest 459 528 36,000  Level FlightAware Transoceanic
02:00AM 46.3831 153.2704 228° Southwest 459 528 36,000  Level FlightAware Transoceanic
02:01AM 46.2999 153.1350 228° Southwest 459 528 36,000  Level FlightAware Transoceanic
02:02AM 46.2101 152.9894 228° Southwest  Level FlightAware Approximate
02:03AM 46.2035 152.9790 228° Southwest  Level FlightAware Approximate
02:04AM 46.1130 152.8346 228° Southwest  Level FlightAware Approximate
02:05AM 46.0222 152.6908 228° Southwest  Level FlightAware Approximate
02:06AM 45.9313 152.5474 228° Southwest  Level FlightAware Approximate
02:07AM 45.8402 152.4044 228° Southwest  Level FlightAware Approximate
02:08AM 45.7490 152.2620 227° Southwest  Level FlightAware Approximate
02:09AM 45.6575 152.1200 227° Southwest  Level FlightAware Approximate
02:10AM 45.5659 151.9785 227° Southwest  Level FlightAware Approximate
02:11AM 45.4741 151.8374 227° Southwest  Level FlightAware Approximate
02:12AM 45.3821 151.6968 227° Southwest  Level FlightAware Approximate
02:13AM 45.2900 151.5566 227° Southwest  Level FlightAware Approximate
02:14AM 45.1977 151.4169 227° Southwest  Level FlightAware Approximate
02:15AM 45.1052 151.2777 227° Southwest  Level FlightAware Approximate
02:16AM 45.0127 151.1391 227° Southwest  Level FlightAware Approximate
02:17AM 44.9201 151.0011 227° Southwest  Level FlightAware Approximate
02:18AM 44.8276 150.8640 226° Southwest  Level FlightAware Approximate
02:19AM 44.7350 150.7273 226° Southwest  Level FlightAware Approximate
02:20AM 44.6422 150.5911 226° Southwest  Level FlightAware Approximate
02:21AM 44.5493 150.4553 226° Southwest  Level FlightAware Approximate
02:22AM 44.4562 150.3199 226° Southwest  Level FlightAware Approximate
02:23AM 44.3629 150.1850 226° Southwest  Level FlightAware Approximate
02:24AM 44.2695 150.0505 226° Southwest  Level FlightAware Approximate
02:25AM 44.1759 149.9164 226° Southwest  Level FlightAware Approximate
02:26AM 44.0822 149.7827 226° Southwest  Level FlightAware Approximate
02:27AM 43.9883 149.6495 226° Southwest  Level FlightAware Approximate
02:28AM 43.8943 149.5167 226° Southwest  Level FlightAware Approximate
02:29AM 43.8001 149.3843 225° Southwest  Level FlightAware Approximate
02:30AM 43.7058 149.2523 225° Southwest  Level FlightAware Approximate
02:31AM 43.6113 149.1208 225° Southwest  Level FlightAware Approximate
02:32AM 43.5166 148.9896 225° Southwest  Level FlightAware Approximate
02:33AM 43.4218 148.8589 225° Southwest  Level FlightAware Approximate
02:34AM 43.3268 148.7287 225° Southwest  Level FlightAware Approximate
02:34AM 43.4990 148.9670 225° Southwest 437 503 37,000  Level FlightAware
02:35AM 43.2317 148.5988 225° Southwest  Level FlightAware Approximate
02:35AM 43.4340 148.8780 225° Southwest 436 502 37,000  Level FlightAware
02:36AM 43.3680 148.7860 225° Southwest 436 502 37,000  Level FlightAware
02:37AM 43.3120 148.7090 225° Southwest 436 502 37,000  Level FlightAware
02:37AM 43.2460 148.6200 225° Southwest 436 502 37,000  Level FlightAware
02:38AM 43.1880 148.5410 225° Southwest 437 503 37,000  Level FlightAware
02:39AM 43.1300 148.4620 225° Southwest 437 503 37,000  Level FlightAware
02:39AM 43.0740 148.3870 224° Southwest 437 503 37,000  Level FlightAware
02:40AM 43.0060 148.2950 225° Southwest 437 503 37,000  Level FlightAware
02:41AM 42.9490 148.2180 225° Southwest 437 503 37,000  Level FlightAware
02:41AM 42.8830 148.1280 225° Southwest 437 503 37,000  Level FlightAware
02:42AM 42.8250 148.0510 224° Southwest 437 503 37,000  Level FlightAware
02:43AM 42.7570 147.9620 224° Southwest 437 503 37,000  Level FlightAware
02:44AM 42.6990 147.8830 225° Southwest 437 503 37,000  Level FlightAware
02:44AM 42.6330 147.7960 224° Southwest 437 503 37,000  Level FlightAware
02:45AM 42.5740 147.7190 224° Southwest 437 503 37,000  Level FlightAware
02:46AM 42.5160 147.6410 225° Southwest 436 502 37,000  Level FlightAware
02:46AM 42.4500 147.5540 224° Southwest 437 503 37,000  Level FlightAware
02:47AM 42.3920 147.4770 224° Southwest 437 503 37,000  Level FlightAware
02:48AM 42.3340 147.4020 224° Southwest 437 503 37,000  Level FlightAware
02:48AM 42.2820 147.3350 224° Southwest 437 503 37,000  Level FlightAware
02:49AM 42.2230 147.2560 225° Southwest 437 503 37,000  Level FlightAware
02:50AM 42.1630 147.1790 224° Southwest 444 511 37,000  Level FlightAware
02:50AM 42.1040 147.1030 224° Southwest 445 512 37,000  Level FlightAware
02:51AM 42.0370 147.0160 224° Southwest 446 513 37,000  Level FlightAware
02:52AM 41.9700 146.9300 224° Southwest 447 514 37,000  Level FlightAware
02:52AM 41.9100 146.8530 224° Southwest 447 514 37,000  Level FlightAware
02:53AM 41.8520 146.7780 224° Southwest 446 513 37,000  Level FlightAware
02:54AM 41.7910 146.7000 224° Southwest 446 513 37,000  Level FlightAware
02:54AM 41.7310 146.6230 224° Southwest 446 513 37,000  Level FlightAware
02:55AM 41.6640 146.5380 223° Southwest 446 513 37,000  Level FlightAware
02:56AM 41.5970 146.4520 224° Southwest 445 512 37,000  Level FlightAware
02:57AM 41.5370 146.3770 223° Southwest 444 511 37,000  Level FlightAware
02:57AM 41.4700 146.2920 224° Southwest 444 511 37,000  Level FlightAware
02:58AM 41.4110 146.2170 224° Southwest 445 512 37,000  Level FlightAware
02:59AM 41.3430 146.1320 223° Southwest 445 512 37,000 180 Level FlightAware
02:59AM 41.2920 146.0680 223° Southwest 447 514 37,300 300 Climbing FlightAware
03:00AM 41.2250 145.9830 224° Southwest 447 514 37,500 1,140 Climbing FlightAware
03:01AM 41.1610 145.9030 223° Southwest 439 505 39,000 1,080 Climbing FlightAware
03:02AM 41.0940 145.8200 223° Southwest 439 505 39,000  Level FlightAware
03:02AM 41.0420 145.7560 223° Southwest 438 504 39,000  Level FlightAware
03:03AM 40.9750 145.6740 223° Southwest 436 502 39,000  Level FlightAware
03:04AM 40.9090 145.5930 223° Southwest 429 494 39,000  Level FlightAware
03:04AM 40.8500 145.5200 223° Southwest 429 494 39,000  Level FlightAware
03:05AM 40.7840 145.4390 223° Southwest 435 501 39,000  Level FlightAware
03:06AM 40.7310 145.3740 223° Southwest 435 501 39,000  Level FlightAware
03:06AM 40.6640 145.2930 223° Southwest 435 501 39,000  Level FlightAware
03:07AM 40.6000 145.2160 222° Southwest 435 501 39,000  Level FlightAware
03:08AM 40.5290 145.1280 223° Southwest 435 501 39,000  Level FlightAware
03:09AM 40.4520 145.0380 222° Southwest 435 501 39,000  Level FlightAware
03:10AM 40.4070 144.9840 222° Southwest 435 501 39,000  Level FlightAware
03:10AM 40.3120 144.8670 223° Southwest 438 504 39,000  Level FlightAware
03:11AM 40.2510 144.7940 222° Southwest 438 504 39,000  Level FlightAware
03:12AM 40.1470 144.6700 222° Southwest 438 504 39,000  Level FlightAware
03:13AM 40.0460 144.5500 222° Southwest 436 502 39,000  Level FlightAware
03:14AM 39.9810 144.4730 222° Southwest 436 502 39,000  Level FlightAware
03:15AM 39.9150 144.3950 222° Southwest 436 502 39,000  Level FlightAware
03:15AM 39.8700 144.3420 222° Southwest 436 502 39,000  Level FlightAware
03:16AM 39.8090 144.2710 222° Southwest 436 502 39,000  Level FlightAware
03:17AM 39.7630 144.2170 222° Southwest 436 502 39,000  Level FlightAware
03:18AM 39.7010 144.1440 222° Southwest 436 502 39,000  Level FlightAware
03:18AM 39.6550 144.0900 222° Southwest 436 502 39,000  Level FlightAware
03:19AM 39.5940 144.0190 222° Southwest 436 502 39,000  Level FlightAware
03:20AM 39.5450 143.9620 222° Southwest 436 502 39,000  Level FlightAware
03:20AM 39.4840 143.8910 222° Southwest 436 502 39,000  Level FlightAware
03:21AM 39.4380 143.8370 222° Southwest 436 502 39,000  Level FlightAware
03:22AM 39.2670 143.6410 222° Southwest 454 522 39,000  Level FlightAware
03:23AM 39.1930 143.5560 222° Southwest 454 522 39,000  Level FlightAware
03:23AM 39.1140 143.4640 222° Southwest 456 525 39,000  Level FlightAware
03:24AM 39.0570 143.3990 222° Southwest 456 525 39,000  Level FlightAware
03:25AM 38.9880 143.3220 221° Southwest 457 526 39,000  Level FlightAware
03:26AM 38.9150 143.2470 219° Southwest 452 520 39,000  Level FlightAware
03:26AM 38.8190 143.2160 194° South 460 529 39,000  Level FlightAware
03:27AM 38.7430 143.2050 186° South 471 542 39,000  Level FlightAware
03:28AM 38.6260 143.1890 186° South 465 535 39,000  Level FlightAware
03:29AM 38.4890 143.1700 186° South 475 547 39,000  Level FlightAware
03:29AM 38.3980 143.1580 186° South 476 548 39,000  Level FlightAware
03:30AM 38.3150 143.1460 186° South 478 550 39,000  Level FlightAware
03:31AM 38.2290 143.1340 186° South 480 552 39,000  Level FlightAware
03:32AM 38.1100 143.1180 186° South 480 552 39,000  Level FlightAware
03:33AM 38.0230 143.1060 186° South 480 552 39,000  Level FlightAware
03:33AM 37.9560 143.0970 186° South 480 552 39,000  Level FlightAware
03:34AM 37.8030 143.0750 186° South 489 563 39,000  Level FlightAware
03:35AM 37.7040 143.0620 186° South 489 563 39,000  Level FlightAware
03:35AM 37.6270 143.0510 186° South 489 563 39,000  Level FlightAware
03:36AM 37.5230 143.0380 186° South 489 563 39,000  Level FlightAware
03:37AM 37.4220 143.0240 186° South 488 562 39,000  Level FlightAware
03:37AM 37.3330 143.0050 190° South 482 555 39,000  Level FlightAware
03:38AM 37.2490 142.9660 200° South 477 549 39,000  Level FlightAware
03:39AM 37.1600 142.9210 202° Southwest 478 550 39,000  Level FlightAware
03:39AM 37.0920 142.8860 202° Southwest 478 550 39,000  Level FlightAware
03:40AM 36.9920 142.8360 202° Southwest 479 551 39,000  Level FlightAware
03:41AM 36.9090 142.7940 202° Southwest 478 550 39,000  Level FlightAware
03:42AM 36.8270 142.7530 202° Southwest 479 551 39,000  Level FlightAware
03:42AM 36.7520 142.7160 202° Southwest 480 552 39,000  Level FlightAware
03:43AM 36.6320 142.6550 202° Southwest 482 555 39,000 -360 Level FlightAware
03:44AM 36.4930 142.5700 206° Southwest 489 563 38,300 -1,380 Descending FlightAware
03:45AM 36.4270 142.5230 210° Southwest 488 562 36,900 -2,340 Descending FlightAware
03:46AM 36.3180 142.4480 209° Southwest 483 556 34,600 -2,400 Descending FlightAware
03:47AM 36.2070 142.3700 210° Southwest 32,300 -2,460 Descending FlightAware
03:47AM 36.1250 142.3140 209° Southwest 471 542 30,700 -2,340 Descending FlightAware
03:48AM 36.0480 142.2610 209° Southwest 464 534 29,100 -2,400 Descending FlightAware
03:49AM 35.9660 142.2050 209° Southwest 455 524 27,400 -2,280 Descending FlightAware
03:50AM 35.9020 142.1610 209° Southwest 448 516 26,000 -2,460 Descending FlightAware
03:50AM 35.8100 142.0950 210° Southwest 435 501 23,800 -2,220 Descending FlightAware
03:51AM 35.7640 141.9990 239° Southwest 396 456 22,500 -1,620 Descending FlightAware
03:52AM 35.7670 141.9020 272° West 375 432 21,300 -2,160 Descending FlightAware
03:53AM 35.7750 141.8110 276° West 384 442 19,400 -2,400 Descending FlightAware
03:53AM 35.7830 141.7140 276° West 380 437 17,900 -2,040 Descending FlightAware
03:54AM 35.7900 141.6280 276° West 375 432 16,500 -2,100 Descending FlightAware
03:55AM 35.7980 141.5350 276° West 370 426 15,000 -1,980 Descending FlightAware
03:55AM 35.8040 141.4580 276° West 368 423 13,800 -1,860 Descending FlightAware
03:56AM 35.8110 141.3690 276° West 364 419 12,500 -1,800 Descending FlightAware
03:57AM 35.8170 141.2900 275° West 358 412 11,400 -1,380 Descending FlightAware
03:58AM 35.8240 141.1990 275° West 336 387 10,500 -660 Descending FlightAware
03:58AM 35.8290 141.1330 275° West 294 338 10,500 -540 Level FlightAware
03:59AM 35.8350 141.0590 276° West 278 320 9,800 -960 Descending FlightAware
03:59AM 35.8380 141.0150 275° West 274 315 9,400 -540 Descending FlightAware
04:00AM 35.8420 140.9660 276° West 270 311 9,300 -120 Descending FlightAware
04:00AM 35.8450 140.9200 275° West 271 312 9,300  Level FlightAware
04:01AM 35.8480 140.8840 276° West 273 314 9,300  Level FlightAware
04:01AM 35.8520 140.8410 277° West 275 316 9,300  Level FlightAware
04:02AM 35.8620 140.7990 286° West 272 313 9,300  Level FlightAware
04:03AM 35.8960 140.7090 295° West 272 313 9,300 -240 Level FlightAware
04:03AM 35.9050 140.6840 294° West 267 307 9,000 -1,260 Descending FlightAware
04:04AM 35.9210 140.6390 294° West 262 302 8,300 -1,320 Descending FlightAware
04:04AM 35.9300 140.6150 295° West 263 303 7,900 -1,320 Descending FlightAware
04:04AM 35.9400 140.5810 290° West 261 300 7,400 -1,320 Descending FlightAware
04:05AM 35.9540 140.5400 293° West 261 300 6,700 -960 Descending FlightAware
04:05AM 35.9710 140.4900 293° West 266 306 6,300 -540 Descending FlightAware
04:06AM 35.9770 140.4730 294° West 263 303 6,300 -480 Level FlightAware
04:06AM 35.9900 140.4350 293° West 260 299 6,000 -900 Descending FlightAware
04:07AM 36.0050 140.3890 292° West 253 291 5,400 -600 Descending FlightAware
04:07AM 36.0160 140.3540 291° West 231 266 5,400 -240 Level FlightAware
04:08AM 36.0090 140.3210 255° West 226 260 5,200 -840 Descending FlightAware
04:08AM 35.9940 140.2980 231° Southwest 223 257 4,700 -1,560 Descending FlightAware
04:08AM 35.9810 140.2810 227° Southwest 221 254 4,200 -1,440 Descending FlightAware
04:09AM 35.9590 140.2630 214° Southwest 218 251 3,600 -1,200 Descending FlightAware
04:09AM 35.9500 140.2580 204° Southwest 215 247 3,400 -660 Descending FlightAware
04:09AM 35.9130 140.2680 168° South 214 246 3,100 -420 Descending FlightAware
04:10AM 35.8900 140.2840 151° Southeast 189 217 3,000 -360 Descending FlightAware
04:10AM 35.8820 140.2900 149° Southeast 191 220 2,900 -960 Descending FlightAware
04:11AM 35.8260 140.3300 150° Southeast 168 193 1,600 -780 Descending FlightAware
04:12AM 35.8000 140.3500 148° Southeast 152 175 1,300 -420 Descending FlightAware
04:15AM 35.7647 140.3864 253° West  Level Estimated